Impacts TAF Board
For situational awareness. Not to be used for flight planning purposes.
IDs:

KMSP - Minneapolis-St Paul, MN, US

Issued at 2338 UTC 16 Jul 2019
Updated at 0019 UTC 17 Jul 2019
Potential Impact None Slight Moderate High
Time<<17/13Z 17/14Z 17/15Z 17/16Z 17/17Z 17/18Z 17/19Z 17/20Z 17/21Z 17/22Z 17/23Z 18/00Z 18/01Z>>
Type PRVL PRVL PRVL PRVL PRVL PRVL PRVL PRVL PRVL PRVL
  [PRB30]  
PRVL
  [PRB30]  
PRVL
  [PRB30]  
PRVL
  [PRB30]  
VIS >6 >6 >6 >6 >6 >6 >6 >6 >6 >6
  [3]  
>6
  [3]  
>6
  [3]  
>6
  [3]  
CIG -- 70 70 70 70 100 100 100 100 100
  [35]  
100
  [35]  
100
  [35]  
100
  [35]  
Cover SCT OVC OVC OVC OVC BKN BKN BKN BKN BKN
  [OVC]  
BKN
  [OVC]  
BKN
  [OVC]  
BKN
  [OVC]  
FltCat VFR VFR VFR VFR VFR VFR VFR VFR VFR VFR
  [MVFR]  
VFR
  [MVFR]  
VFR
  [MVFR]  
VFR
  [MVFR]  
WX -- -- -- -- -- -- -- -- -- --
  [TSRA]  
--
  [TSRA]  
--
  [TSRA]  
--
  [TSRA]  
WDir VRB 150 150 150 150 160 160 160 160 160
[160]
160
[160]
160
[160]
160
[160]
WSpd 3 7 7 7 7 13 13 13 13 13
  [13]  
13
  [13]  
13
  [13]  
13
  [13]  
WGst -- -- -- -- -- 20 20 20 20 20
  [20]  
20
  [20]  
20
  [20]  
20
  [20]  
Raw TAF
KMSP 162338Z 1700/1806 VRB03KT P6SM FEW035 SCT120
  FM171400 15007KT P6SM BKN070 OVC120
  FM171800 16013G20KT P6SM SCT050 BKN100
  PROB30 1722/1804 3SM TSRA OVC035CB


METAR Board
Radar Display
Forecast Discussion
For situational awareness. Not to be used for flight planning purposes.